Valhalla, New York
Current Conditions -  °F | °C
As of 11:56 PM on Sunday 19 Oct 2014 (Local Time) from KHPN Reporting Station
Few Clouds Few Clouds  
Wind Chill: 36°   Ceiling: Unl
Heat Index: 41°   Visibility: 10mi
Dew Point: 27°   Wind: 8mph
Humidity: 57%   Direction: 320°NW
Pressure: 30.03"   Gusts: NA
Location:  41.08°N, 73.77°W
Report Text: KHPN 200356Z 32007KT 10SM FEW090 05/M03 A3003 RMK AO2 SLP173 T00501028
Loading
Personal Weather Stations






























Interactive Weather Map
Tropical Storm Tracking
New forecast layout! Learn more

10-Day Weather Forecast

Advertisements
Track Severe Weather on mobile